American Falls, Idaho
Current Conditions -  °F | °C
As of 9:53 AM on Monday 24 Nov 2014 (Local Time) from KPIH Reporting Station
Few Clouds Few Clouds  
Wind Chill: -5°   Ceiling: Unl
Heat Index:   Visibility: 10mi
Dew Point: -3°   Wind: 17mph
Humidity: 78%   Direction: 220°SW
Pressure: 30.34"   Gusts: NA
Location:  42.79°N, 112.85°W
Report Text: KPIH 241653Z 22015KT 10SM FEW035 01/M03 A3034 RMK AO2 SLP292 T00061028
Loading
Personal Weather Stations






























Interactive Weather Map New forecast layout! Learn more

10-Day Weather Forecast

Advertisements
Track Severe Weather on mobile